createdAt,value
2022-10-14T00:02:20.533Z,34.22
2022-10-14T00:07:05.611Z,28.95
2022-10-14T00:11:51.363Z,33.45
2022-10-14T00:16:38.574Z,46.28
2022-10-14T00:21:26.805Z,32.40
2022-10-14T00:26:19.006Z,37.17
2022-10-14T00:31:05.332Z,42.13
2022-10-14T00:35:57.048Z,40.75
2022-10-14T00:40:44.958Z,36.95
2022-10-14T00:45:30.208Z,40.70
2022-10-14T00:50:17.186Z,36.15
2022-10-14T00:55:07.143Z,32.97
2022-10-14T00:59:57.459Z,40.60
2022-10-14T01:04:46.759Z,38.22
2022-10-14T01:09:38.097Z,40.90
2022-10-14T01:14:34.641Z,46.63
2022-10-14T01:19:42.587Z,45.80
2022-10-14T01:24:46.734Z,48.22
2022-10-14T01:30:07.437Z,39.72
2022-10-14T01:35:00.262Z,44.90
2022-10-14T01:39:50.858Z,39.65
2022-10-14T01:44:38.418Z,55.90
2022-10-14T01:49:30.121Z,37.45
2022-10-14T01:59:06.185Z,51.95
2022-10-14T02:03:51.516Z,45.47
2022-10-14T02:08:44.271Z,63.53
2022-10-14T02:13:59.948Z,45.75
2022-10-14T02:18:53.038Z,41.92
2022-10-14T02:23:42.325Z,41.95
2022-10-14T02:28:31.465Z,39.55
2022-10-14T02:33:21.033Z,43.22
2022-10-14T02:38:08.254Z,47.53
2022-10-14T02:42:53.402Z,48.67
2022-10-14T02:47:38.691Z,41.67
2022-10-14T02:52:26.350Z,38.58
2022-10-14T02:57:11.765Z,38.65
2022-10-14T03:01:56.773Z,40.72
2022-10-14T03:06:42.122Z,36.28
2022-10-14T03:11:30.008Z,35.85
2022-10-14T03:16:15.275Z,43.28
2022-10-14T03:21:00.371Z,41.40
2022-10-14T03:25:47.697Z,36.80
2022-10-14T03:30:35.339Z,42.60
2022-10-14T03:35:20.780Z,47.05
2022-10-14T03:40:06.447Z,43.92
2022-10-14T03:44:51.740Z,44.63
2022-10-14T03:49:39.359Z,38.75
2022-10-14T03:54:24.728Z,43.08
2022-10-14T03:59:09.760Z,40.65
2022-10-14T04:03:55.070Z,45.35
2022-10-14T04:08:43.143Z,36.50
2022-10-14T04:13:28.588Z,37.83
2022-10-14T04:18:13.648Z,46.58
2022-10-14T04:23:02.003Z,43.92
2022-10-14T04:27:49.831Z,43.50
2022-10-14T04:32:35.181Z,48.10
2022-10-14T04:37:20.306Z,41.20
2022-10-14T04:42:05.643Z,49.05
2022-10-14T04:46:53.289Z,43.47
2022-10-14T04:51:38.863Z,51.42
2022-10-14T04:56:23.915Z,46.17
2022-10-14T05:01:09.519Z,47.30
2022-10-14T05:05:57.152Z,36.30
2022-10-14T05:10:42.616Z,45.45
2022-10-14T05:15:27.601Z,41.78
2022-10-14T05:20:13.978Z,34.47
2022-10-14T05:25:01.587Z,34.40
2022-10-14T05:29:46.847Z,32.88
2022-10-14T05:34:31.874Z,37.53
2022-10-14T05:39:17.177Z,30.90
2022-10-14T05:44:04.853Z,36.33
2022-10-14T05:48:50.529Z,35.45
2022-10-14T05:53:35.592Z,34.35
2022-10-14T05:58:20.874Z,31.88
2022-10-14T06:03:08.943Z,41.17
2022-10-14T06:07:54.275Z,35.80
2022-10-14T06:12:39.642Z,41.70
2022-10-14T06:17:25.187Z,41.30
2022-10-14T06:22:12.870Z,45.92
2022-10-14T06:26:58.189Z,28.45
2022-10-14T06:31:43.299Z,39.15
2022-10-14T06:36:28.687Z,35.58
2022-10-14T06:41:16.331Z,31.70
2022-10-14T06:46:02.316Z,27.15
2022-10-14T06:50:47.311Z,24.90
2022-10-14T06:55:32.628Z,30.42
2022-10-14T07:00:21.265Z,28.58
2022-10-14T07:05:07.027Z,20.25
2022-10-14T07:09:52.045Z,19.75
2022-10-14T07:14:37.387Z,25.05
2022-10-14T07:19:25.014Z,17.42
2022-10-14T07:24:11.567Z,15.38
2022-10-14T07:28:56.778Z,16.27
2022-10-14T07:33:43.451Z,11.55
2022-10-14T07:38:31.147Z,14.65
2022-10-14T07:43:16.524Z,13.88
2022-10-14T07:48:01.510Z,11.52
2022-10-14T07:52:47.244Z,20.98
2022-10-14T07:57:35.013Z,11.30
2022-10-14T08:02:20.288Z,15.98
2022-10-14T08:07:05.323Z,16.45
2022-10-14T08:11:50.944Z,13.48
2022-10-14T08:16:39.519Z,16.27
2022-10-14T08:21:25.323Z,14.38
2022-10-14T08:26:21.947Z,15.98
2022-10-14T08:31:07.481Z,19.98
2022-10-14T08:35:55.114Z,24.25
2022-10-14T08:40:56.619Z,18.08
2022-10-14T08:45:48.499Z,22.83
2022-10-14T08:50:36.757Z,20.75
2022-10-14T08:55:33.275Z,20.88
2022-10-14T09:00:19.628Z,25.48
2022-10-14T09:05:05.442Z,25.65
2022-10-14T09:09:53.226Z,25.33
2022-10-14T09:14:47.470Z,23.70
2022-10-14T09:19:35.892Z,27.40
2022-10-14T09:24:24.724Z,20.00
2022-10-14T09:29:24.970Z,25.80
2022-10-14T09:34:21.090Z,25.42
2022-10-14T09:39:06.484Z,22.38
2022-10-14T09:44:18.726Z,25.73
2022-10-14T09:49:05.449Z,25.00
2022-10-14T09:53:55.445Z,17.65
2022-10-14T09:58:48.502Z,24.02
2022-10-14T10:03:35.725Z,25.27
2022-10-14T10:08:22.637Z,28.38
2022-10-14T10:13:25.077Z,21.85
2022-10-14T10:18:22.449Z,21.02
2022-10-14T10:23:29.194Z,18.52
2022-10-14T10:28:34.741Z,23.80
2022-10-14T10:33:29.047Z,29.88
2022-10-14T10:38:24.901Z,20.02
2022-10-14T10:43:42.783Z,23.05
2022-10-14T10:48:34.193Z,19.20
2022-10-14T10:53:44.436Z,19.42
2022-10-14T10:58:45.516Z,18.38
2022-10-14T11:03:50.748Z,19.53
2022-10-14T11:09:08.573Z,22.80
2022-10-14T11:14:05.923Z,20.70
2022-10-14T11:18:53.472Z,16.33
2022-10-14T11:23:59.746Z,18.73
2022-10-14T11:28:54.271Z,17.98
2022-10-14T11:33:55.999Z,16.35
2022-10-14T11:38:54.115Z,14.50
2022-10-14T11:43:48.218Z,18.58
2022-10-14T11:48:39.783Z,18.38
2022-10-14T11:53:35.322Z,17.33
2022-10-14T11:58:25.926Z,20.23
2022-10-14T12:03:17.311Z,17.83
2022-10-14T12:08:20.525Z,19.08
2022-10-14T12:13:13.955Z,21.35
2022-10-14T12:18:02.830Z,13.77
2022-10-14T12:22:51.090Z,22.15
2022-10-14T12:33:03.775Z,15.15
2022-10-14T12:43:00.214Z,17.90
2022-10-14T12:47:48.348Z,13.45
2022-10-14T12:52:36.072Z,18.25
2022-10-14T12:57:30.811Z,13.75
2022-10-14T13:02:22.216Z,15.35
2022-10-14T13:12:45.341Z,17.92
2022-10-14T13:17:47.134Z,15.13
2022-10-14T13:22:44.203Z,15.00
2022-10-14T13:27:56.028Z,19.10
2022-10-14T13:32:46.584Z,16.77
2022-10-14T13:37:35.362Z,17.05
2022-10-14T13:42:29.166Z,16.42
2022-10-14T13:47:17.360Z,15.23
2022-10-14T13:52:06.810Z,15.25
2022-10-14T14:02:19.256Z,18.60
2022-10-14T14:12:48.039Z,15.45
2022-10-14T14:17:50.694Z,18.80
2022-10-14T14:22:36.132Z,9.68
2022-10-14T14:27:23.904Z,19.63
2022-10-14T14:32:09.762Z,15.75
2022-10-14T14:37:06.044Z,21.73
2022-10-14T14:42:03.448Z,18.10
2022-10-14T14:46:49.527Z,15.10
2022-10-14T14:51:38.344Z,20.08
2022-10-14T14:56:29.673Z,20.98
2022-10-14T15:01:23.186Z,13.65
2022-10-14T15:06:09.265Z,12.45
2022-10-14T15:10:58.102Z,15.68
2022-10-14T15:15:55.842Z,16.83
2022-10-14T15:20:42.163Z,14.68
2022-10-14T15:25:30.832Z,13.63
2022-10-14T15:30:32.027Z,16.75
2022-10-14T15:35:22.056Z,15.63
2022-10-14T15:40:07.659Z,17.83
2022-10-14T15:44:53.076Z,17.15
2022-10-14T15:49:41.948Z,14.32
2022-10-14T15:54:29.966Z,17.90
2022-10-14T15:59:16.330Z,19.02
2022-10-14T16:04:01.658Z,13.52
2022-10-14T16:08:46.669Z,16.17
2022-10-14T16:13:34.815Z,20.75
2022-10-14T16:18:21.674Z,14.63
2022-10-14T16:23:08.196Z,15.88
2022-10-14T16:27:53.477Z,15.35
2022-10-14T16:32:41.435Z,17.30
2022-10-14T16:37:26.460Z,11.73
2022-10-14T16:42:11.855Z,13.90
2022-10-14T16:47:10.836Z,19.33
2022-10-14T16:51:58.758Z,21.67
2022-10-14T16:56:57.028Z,15.10
2022-10-14T17:01:43.315Z,13.20
2022-10-14T17:06:29.215Z,15.65
2022-10-14T17:11:17.218Z,17.08
2022-10-14T17:16:03.374Z,15.75
2022-10-14T17:20:48.658Z,10.50
2022-10-14T17:25:33.694Z,11.23
2022-10-14T17:30:21.633Z,20.13
2022-10-14T17:35:10.270Z,15.68
2022-10-14T17:39:59.836Z,13.43
2022-10-14T17:44:44.831Z,11.95
2022-10-14T17:49:33.239Z,16.17
2022-10-14T17:54:18.271Z,18.40
2022-10-14T17:59:05.573Z,11.32
2022-10-14T18:03:50.793Z,13.88
2022-10-14T18:08:39.183Z,18.50
2022-10-14T18:13:24.232Z,14.95
2022-10-14T18:18:09.775Z,15.48
2022-10-14T18:22:54.847Z,21.88
2022-10-14T18:27:42.793Z,16.92
2022-10-14T18:32:27.836Z,16.80
2022-10-14T18:37:13.529Z,17.77
2022-10-14T18:41:58.567Z,13.45
2022-10-14T18:46:47.685Z,17.55
2022-10-14T18:51:35.223Z,17.45
2022-10-14T18:56:23.104Z,14.05
2022-10-14T19:01:09.387Z,9.02
2022-10-14T19:06:00.258Z,17.25
2022-10-14T19:10:45.604Z,15.77
2022-10-14T19:15:44.648Z,17.73
2022-10-14T19:20:32.301Z,19.55
2022-10-14T19:25:20.775Z,15.90
2022-10-14T19:30:06.227Z,14.05
2022-10-14T19:34:51.848Z,17.13
2022-10-14T19:39:37.182Z,16.23
2022-10-14T19:44:24.853Z,21.33
2022-10-14T19:49:10.246Z,19.63
2022-10-14T19:53:57.534Z,22.77
2022-10-14T19:58:45.070Z,22.38
2022-10-14T20:03:32.904Z,17.48
2022-10-14T20:08:18.205Z,16.63
2022-10-14T20:13:03.222Z,18.75
2022-10-14T20:17:48.818Z,13.25
2022-10-14T20:22:37.549Z,17.17
2022-10-14T20:27:23.062Z,13.98
2022-10-14T20:32:09.387Z,13.48
2022-10-14T20:36:55.103Z,13.13
2022-10-14T20:41:42.705Z,20.95
2022-10-14T20:46:28.208Z,16.63
2022-10-14T20:51:15.567Z,12.27
2022-10-14T20:56:04.949Z,15.52
2022-10-14T21:00:52.658Z,16.42
2022-10-14T21:05:39.935Z,13.63
2022-10-14T21:10:25.053Z,15.63
2022-10-14T21:15:12.349Z,13.15
2022-10-14T21:19:59.969Z,11.05
2022-10-14T21:24:45.254Z,10.23
2022-10-14T21:29:30.468Z,12.85
2022-10-14T21:34:16.473Z,14.40
2022-10-14T21:39:07.439Z,14.65
2022-10-14T21:43:53.487Z,10.00
2022-10-14T21:48:38.605Z,16.05
2022-10-14T21:53:23.899Z,12.95
2022-10-14T21:58:11.624Z,13.13
2022-10-14T22:02:57.340Z,10.82
2022-10-14T22:07:42.645Z,12.68
2022-10-14T22:12:28.907Z,16.45
2022-10-14T22:17:16.840Z,7.00
2022-10-14T22:22:03.409Z,15.10
2022-10-14T22:26:48.826Z,13.20
2022-10-14T22:31:35.916Z,11.77
2022-10-14T22:36:28.261Z,15.15
2022-10-14T22:41:15.148Z,15.82
2022-10-14T22:46:04.318Z,13.82
2022-10-14T22:50:49.869Z,16.35
2022-10-14T22:55:37.982Z,12.82
2022-10-14T23:00:23.115Z,16.80
2022-10-14T23:05:09.945Z,6.85
2022-10-14T23:09:55.336Z,10.57
2022-10-14T23:14:43.306Z,13.32
2022-10-14T23:19:28.387Z,14.38
2022-10-14T23:24:14.801Z,12.27
2022-10-14T23:29:01.436Z,13.50
2022-10-14T23:33:51.856Z,17.63
2022-10-14T23:38:37.388Z,13.15
2022-10-14T23:43:22.687Z,11.35
2022-10-14T23:48:08.276Z,13.90
2022-10-14T23:52:56.238Z,14.95
2022-10-14T23:57:41.278Z,12.88
